createdAt,value
2023-05-06T04:50:49.377Z,96650.91
2023-05-06T04:51:50.876Z,96659.22
2023-05-06T07:01:49.518Z,96715.19
2023-05-06T07:04:02.513Z,96719.38
2023-05-06T07:06:15.065Z,96717.25
2023-05-06T07:07:16.759Z,96728.50
2023-05-06T07:08:18.269Z,96729.66
2023-05-06T07:09:19.762Z,96725.16
2023-05-06T07:10:22.049Z,96733.09
2023-05-06T07:11:23.426Z,96722.78
2023-05-06T07:12:26.798Z,96731.81
2023-05-06T07:13:28.302Z,96736.84
2023-05-06T07:14:29.760Z,96735.28
2023-05-06T07:15:31.224Z,96728.22
2023-05-06T07:16:32.804Z,96737.00
2023-05-06T07:17:34.315Z,96734.84
2023-05-06T07:18:35.914Z,96737.16
2023-05-06T07:19:37.242Z,96728.78
2023-05-06T07:20:38.582Z,96725.22
2023-05-06T07:21:39.946Z,96725.31
2023-05-06T07:22:41.475Z,96723.63
2023-05-06T07:23:42.947Z,96733.28
2023-05-06T07:24:44.570Z,96735.34
2023-05-06T07:25:46.010Z,96730.81
2023-05-06T07:26:47.703Z,96735.47
2023-05-06T07:27:49.105Z,96735.47
2023-05-06T07:28:50.908Z,96729.34
2023-05-06T07:29:52.324Z,96733.41
2023-05-06T07:30:53.926Z,96732.06
2023-05-06T07:31:55.304Z,96732.75
2023-05-06T07:32:56.890Z,96722.91
2023-05-06T07:33:58.584Z,96728.72
2023-05-06T07:35:00.202Z,96726.75
2023-05-06T07:36:01.583Z,96730.34
2023-05-06T07:37:03.856Z,96730.66
2023-05-06T07:38:05.418Z,96713.34
2023-05-06T07:39:08.371Z,96726.09
2023-05-06T07:40:10.198Z,96735.75
2023-05-06T07:41:11.607Z,96728.09
2023-05-06T07:42:13.203Z,96733.34
2023-05-06T07:43:14.751Z,96732.53
2023-05-06T07:44:16.114Z,96715.13
2023-05-06T07:45:19.521Z,96729.47
2023-05-06T07:46:21.033Z,96729.59
2023-05-06T07:47:28.237Z,96721.78
2023-05-06T07:48:30.371Z,96732.66
2023-05-06T07:49:33.313Z,96735.59
2023-05-06T07:50:34.768Z,96731.34
2023-05-06T07:51:36.234Z,96733.06
2023-05-06T07:52:37.752Z,96732.97
2023-05-06T07:53:40.159Z,96734.22
2023-05-06T07:54:41.511Z,96734.31
2023-05-06T07:55:42.869Z,96740.06
2023-05-06T07:56:44.258Z,96740.25
2023-05-06T07:57:45.821Z,96742.47
2023-05-06T07:58:49.381Z,96736.47
2023-05-06T07:59:51.799Z,96730.22
2023-05-06T08:00:53.247Z,96746.44
2023-05-06T08:01:54.649Z,96740.78
2023-05-06T08:02:56.288Z,96744.38
2023-05-06T08:03:58.305Z,96743.88
2023-05-06T08:05:00.214Z,96750.31
2023-05-06T08:06:01.761Z,96751.63
2023-05-06T08:07:03.136Z,96750.00
2023-05-06T08:08:05.326Z,96755.66
2023-05-06T08:09:06.716Z,96753.88
2023-05-06T08:10:09.256Z,96762.41
2023-05-06T08:11:10.612Z,96736.50
2023-05-06T08:12:11.971Z,96751.09
2023-05-06T08:13:13.696Z,96749.88
2023-05-06T08:14:15.174Z,96742.53
2023-05-06T08:15:16.719Z,96754.69
2023-05-06T08:16:18.184Z,96753.84
2023-05-06T08:17:19.731Z,96751.56
2023-05-06T08:18:23.170Z,96759.88
2023-05-06T08:19:24.919Z,96746.63
2023-05-06T08:20:26.357Z,96760.59
2023-05-06T08:21:27.762Z,96756.63
2023-05-06T08:22:29.158Z,96755.66
2023-05-06T08:23:31.792Z,96741.81
2023-05-06T08:24:33.259Z,96754.34
2023-05-06T08:25:34.776Z,96755.19
2023-05-06T08:26:36.354Z,96749.06
2023-05-06T08:27:37.831Z,96738.03
2023-05-06T08:28:39.240Z,96726.91
2023-05-06T08:29:40.640Z,96746.91
2023-05-06T08:30:42.068Z,96754.72
2023-05-06T08:31:43.598Z,96755.47
2023-05-06T08:32:45.230Z,96756.50
2023-05-06T08:33:46.710Z,96749.66
2023-05-06T08:34:48.110Z,96750.56
2023-05-06T08:35:50.653Z,96745.78
2023-05-06T08:36:52.207Z,96757.81
2023-05-06T08:37:53.569Z,96759.34
2023-05-06T08:38:54.990Z,96757.19
2023-05-06T08:39:58.101Z,96758.94
2023-05-06T08:41:07.777Z,96757.91
2023-05-06T08:42:11.349Z,96754.75
2023-05-06T08:43:14.638Z,96753.81
2023-05-06T08:44:19.004Z,96753.69
2023-05-06T08:45:20.388Z,96746.94
2023-05-06T08:46:22.836Z,96762.00
2023-05-06T08:47:24.301Z,96758.25
2023-05-06T08:48:26.071Z,96755.03
2023-05-06T08:49:28.161Z,96757.50
2023-05-06T08:50:29.862Z,96753.56
2023-05-06T08:51:32.377Z,96750.94
2023-05-06T08:52:35.512Z,96751.59
2023-05-06T08:53:40.015Z,96753.09
2023-05-06T08:54:42.590Z,96756.69
2023-05-06T08:55:45.468Z,96753.75
2023-05-06T08:56:51.369Z,96748.31
2023-05-06T08:57:53.195Z,96750.00
2023-05-06T08:58:56.533Z,96758.69
2023-05-06T08:59:58.358Z,96752.34
2023-05-06T09:01:01.106Z,96758.88
2023-05-06T09:02:04.017Z,96754.56
2023-05-06T09:03:05.879Z,96756.88
2023-05-06T09:04:08.136Z,96760.13
2023-05-06T09:05:10.295Z,96754.69
2023-05-06T09:06:11.942Z,96745.13
2023-05-06T09:07:13.473Z,96752.28
2023-05-06T09:08:15.923Z,96752.31
2023-05-06T09:09:17.400Z,96748.69
2023-05-06T09:10:19.283Z,96750.97
2023-05-06T09:11:21.936Z,96750.75
2023-05-06T09:12:24.733Z,96751.91
2023-05-06T09:13:26.170Z,96746.75
2023-05-06T09:14:27.720Z,96749.28
2023-05-06T09:15:47.228Z,96750.66
2023-05-06T09:16:51.107Z,96746.94
2023-05-06T09:17:54.448Z,96755.38
2023-05-06T09:18:56.867Z,96753.56
2023-05-06T09:19:58.430Z,96751.28
2023-05-06T09:21:00.829Z,96750.69
2023-05-06T09:22:03.646Z,96746.13
2023-05-06T09:23:05.385Z,96743.25
2023-05-06T09:24:08.428Z,96745.38
2023-05-06T09:25:12.011Z,96738.69
2023-05-06T09:26:13.892Z,96756.88
2023-05-06T09:27:15.380Z,96745.38
2023-05-06T09:28:16.824Z,96743.38
2023-05-06T09:29:18.538Z,96744.13
2023-05-06T09:30:20.862Z,96746.41
2023-05-06T09:31:22.417Z,96750.44
2023-05-06T09:32:23.859Z,96730.63
2023-05-06T09:33:27.468Z,96746.16
2023-05-06T09:34:28.838Z,96733.97
2023-05-06T09:35:39.461Z,96742.66
2023-05-06T09:36:41.171Z,96739.63
2023-05-06T09:37:42.518Z,96744.94
2023-05-06T09:38:43.879Z,96739.78
2023-05-06T09:39:45.898Z,96746.16
2023-05-06T09:40:47.330Z,96742.41
2023-05-06T09:41:48.800Z,96732.63
2023-05-06T09:42:51.721Z,96736.03
2023-05-06T09:43:54.694Z,96745.81
2023-05-06T09:45:05.572Z,96742.66
2023-05-06T09:46:07.747Z,96737.34
2023-05-06T09:47:09.648Z,96741.09
2023-05-06T09:48:11.101Z,96734.47
2023-05-06T09:49:15.153Z,96722.06
2023-05-06T09:50:16.558Z,96737.13
2023-05-06T09:51:18.649Z,96728.84
2023-05-06T09:52:21.933Z,96716.41
2023-05-06T09:53:27.562Z,96731.38
2023-05-06T09:54:29.247Z,96731.84
2023-05-06T09:55:30.862Z,96725.28
2023-05-06T09:56:33.582Z,96714.81
2023-05-06T09:57:36.891Z,96726.25
2023-05-06T09:58:38.824Z,96719.25
2023-05-06T09:59:41.682Z,96722.59
2023-05-06T10:00:47.469Z,96721.19
2023-05-06T10:01:49.449Z,96719.63
2023-05-06T10:02:51.303Z,96720.72
2023-05-06T10:03:54.350Z,96717.44
2023-05-06T10:04:57.241Z,96715.44
2023-05-06T10:06:02.300Z,96728.31
2023-05-06T10:07:04.073Z,96717.09
2023-05-06T10:08:07.503Z,96719.28
2023-05-06T10:09:10.305Z,96716.78
2023-05-06T10:10:12.241Z,96724.66
2023-05-06T10:11:14.796Z,96721.72
2023-05-06T10:12:16.501Z,96714.88
2023-05-06T10:13:20.566Z,96720.25
2023-05-06T10:14:22.026Z,96718.69
2023-05-06T10:15:25.907Z,96716.44
2023-05-06T10:16:28.268Z,96712.47
2023-05-06T10:17:31.789Z,96722.72
2023-05-06T10:18:37.013Z,96708.88
2023-05-06T10:19:42.269Z,96718.56
2023-05-06T10:20:44.727Z,96717.66
2023-05-06T10:21:54.084Z,96704.56
2023-05-06T10:23:20.508Z,96709.06
2023-05-06T10:24:32.400Z,96716.13
2023-05-06T10:25:42.481Z,96703.59
2023-05-06T10:26:46.567Z,96703.78
2023-05-06T10:27:48.507Z,96710.06
2023-05-06T10:29:59.814Z,96706.81
2023-05-06T10:31:04.544Z,96710.81
2023-05-06T10:32:09.422Z,96700.94
2023-05-06T10:33:12.138Z,96705.00
2023-05-06T10:34:13.630Z,96698.09
2023-05-06T10:35:26.719Z,96699.50
2023-05-06T10:36:32.084Z,96696.66
2023-05-06T10:37:34.732Z,96690.88
2023-05-06T10:38:41.111Z,96691.47
2023-05-06T10:39:43.460Z,96692.19
2023-05-06T10:40:46.107Z,96689.00
2023-05-06T10:41:48.545Z,96689.84
2023-05-06T10:42:51.513Z,96692.22
2023-05-06T10:43:56.828Z,96683.13
2023-05-06T10:45:05.273Z,96685.53
2023-05-06T10:46:13.920Z,96693.38
2023-05-06T10:47:15.374Z,96684.97
2023-05-06T10:48:16.838Z,96683.78
2023-05-06T10:49:20.421Z,96684.56
2023-05-06T10:50:23.165Z,96674.50
2023-05-06T10:51:27.190Z,96677.81
2023-05-06T10:52:44.970Z,96672.38
2023-05-06T10:53:56.621Z,96676.03
2023-05-06T10:54:58.147Z,96680.72
2023-05-06T10:56:11.614Z,96678.97
2023-05-06T10:57:13.172Z,96676.13
2023-05-06T10:58:16.084Z,96667.84
2023-05-06T10:59:31.313Z,96672.06
2023-05-06T11:00:34.255Z,96670.31
2023-05-06T11:01:37.498Z,96667.91
2023-05-06T11:02:40.600Z,96669.78
2023-05-06T11:03:43.615Z,96666.69
2023-05-06T11:04:51.901Z,96665.44
2023-05-06T11:05:53.329Z,96660.09
2023-05-06T11:07:06.613Z,96662.06
2023-05-06T11:08:10.556Z,96649.69
2023-05-06T11:09:26.714Z,96662.41
2023-05-06T11:10:33.084Z,96659.91
2023-05-06T11:12:01.895Z,96662.88
2023-05-06T11:13:22.001Z,96663.91
2023-05-06T11:14:35.464Z,96666.06
2023-05-06T11:15:36.840Z,96665.56
2023-05-06T11:16:51.736Z,96661.31
2023-05-06T11:17:57.181Z,96659.53
2023-05-06T11:18:59.305Z,96665.44
2023-05-06T11:20:26.453Z,96668.91
2023-05-06T11:21:30.971Z,96659.09
2023-05-06T11:22:40.187Z,96662.13
2023-05-06T11:23:41.845Z,96663.34
2023-05-06T11:24:43.850Z,96655.34
2023-05-06T11:25:47.127Z,96657.88
2023-05-06T11:26:49.598Z,96648.28
2023-05-06T11:27:51.196Z,96656.53
2023-05-06T11:28:52.568Z,96653.91
2023-05-06T11:29:54.058Z,96656.06
2023-05-06T11:30:56.014Z,96662.13
2023-05-06T11:31:58.122Z,96660.16
2023-05-06T11:33:05.695Z,96657.63
2023-05-06T11:34:09.092Z,96649.06
2023-05-06T11:35:11.775Z,96649.00
2023-05-06T11:36:18.443Z,96647.50
2023-05-06T11:37:27.961Z,96657.16
2023-05-06T11:38:45.967Z,96643.06
2023-05-06T11:39:49.113Z,96653.06
2023-05-06T11:40:50.802Z,96646.47
2023-05-06T11:41:53.226Z,96650.81
2023-05-06T11:42:54.896Z,96653.59
2023-05-06T11:43:56.368Z,96655.81
2023-05-06T11:45:03.380Z,96658.72
2023-05-06T11:46:05.199Z,96652.06
2023-05-06T11:47:08.786Z,96664.59
2023-05-06T11:48:17.712Z,96654.59
2023-05-06T11:49:19.203Z,96657.44
2023-05-06T11:50:22.213Z,96655.03
2023-05-06T11:51:24.351Z,96648.84
2023-05-06T11:52:25.892Z,96665.13
2023-05-06T11:53:27.438Z,96657.06
2023-05-06T11:54:28.993Z,96654.28
2023-05-06T11:55:30.388Z,96649.53
2023-05-06T11:56:45.198Z,96640.38
2023-05-06T11:57:47.587Z,96657.34
2023-05-06T11:58:49.036Z,96656.16
2023-05-06T11:59:54.407Z,96660.81
2023-05-06T12:01:01.365Z,96658.66
2023-05-06T12:02:05.266Z,96648.06
2023-05-06T12:03:14.500Z,96645.78
2023-05-06T12:04:16.144Z,96652.19
2023-05-06T12:05:17.804Z,96653.78
2023-05-06T12:06:19.866Z,96655.13
2023-05-06T12:07:22.072Z,96650.72
2023-05-06T12:08:28.205Z,96652.56
2023-05-06T12:09:30.104Z,96646.63
2023-05-06T12:10:31.557Z,96651.13
2023-05-06T12:11:34.387Z,96644.06
2023-05-06T12:12:36.106Z,96651.31
2023-05-06T12:13:39.017Z,96657.16
2023-05-06T12:14:40.805Z,96637.84
2023-05-06T12:15:43.527Z,96641.09
2023-05-06T12:16:45.053Z,96647.41
2023-05-06T12:17:46.800Z,96645.38
2023-05-06T12:18:48.527Z,96644.94
2023-05-06T12:19:50.686Z,96647.88
2023-05-06T12:21:02.536Z,96643.91
2023-05-06T12:22:21.323Z,96639.53
2023-05-06T12:23:22.922Z,96650.38
2023-05-06T12:24:30.901Z,96648.63
2023-05-06T12:25:32.537Z,96642.44
2023-05-06T12:26:48.485Z,96654.94
2023-05-06T12:27:49.852Z,96650.00
2023-05-06T12:29:10.113Z,96645.94
2023-05-06T12:30:12.179Z,96649.59
2023-05-06T12:31:24.187Z,96649.88
2023-05-06T12:32:25.805Z,96641.19
2023-05-06T12:33:27.376Z,96647.56
2023-05-06T12:34:37.249Z,96641.84
2023-05-06T12:35:39.912Z,96646.00
2023-05-06T12:36:44.053Z,96648.97
2023-05-06T12:37:45.453Z,96649.13
2023-05-06T12:38:58.101Z,96643.19
2023-05-06T12:39:59.984Z,96639.31
2023-05-06T12:41:01.350Z,96643.06
2023-05-06T12:42:03.248Z,96640.59
2023-05-06T12:43:04.900Z,96639.34
2023-05-06T12:44:32.250Z,96632.84
2023-05-06T12:45:34.088Z,96634.28
2023-05-06T12:46:35.650Z,96638.00
2023-05-06T12:47:37.162Z,96629.63
2023-05-06T12:48:38.989Z,96636.38
2023-05-06T12:49:51.080Z,96627.88
2023-05-06T12:50:52.577Z,96638.72
2023-05-06T12:52:10.303Z,96634.78
2023-05-06T12:53:15.738Z,96636.53
2023-05-06T12:54:30.622Z,96640.44
2023-05-06T12:55:42.267Z,96630.28
2023-05-06T12:56:45.059Z,96635.75
2023-05-06T12:57:46.568Z,96628.28
2023-05-06T12:58:59.329Z,96622.94
2023-05-06T13:00:00.756Z,96630.00
2023-05-06T13:01:02.223Z,96630.28
2023-05-06T13:02:04.598Z,96629.25
2023-05-06T13:03:06.417Z,96630.25
2023-05-06T13:04:07.931Z,96628.56
2023-05-06T13:05:09.588Z,96627.41
2023-05-06T13:06:10.997Z,96631.75
2023-05-06T13:07:12.559Z,96627.31
2023-05-06T13:08:17.086Z,96624.97
2023-05-06T13:09:18.711Z,96625.50
2023-05-06T13:10:20.053Z,96620.03
2023-05-06T13:11:22.245Z,96628.72
2023-05-06T13:12:23.654Z,96624.72
2023-05-06T13:13:25.006Z,96617.47
2023-05-06T13:14:26.444Z,96622.38
2023-05-06T13:15:28.255Z,96614.66
2023-05-06T13:16:31.355Z,96611.16
2023-05-06T13:17:32.949Z,96613.69
2023-05-06T13:18:34.443Z,96608.81
2023-05-06T13:19:35.911Z,96606.81
2023-05-06T13:20:37.395Z,96597.91
2023-05-06T13:21:39.972Z,96600.59
2023-05-06T13:22:53.908Z,96595.41
2023-05-06T13:23:56.362Z,96590.03
2023-05-06T13:24:57.773Z,96591.50
2023-05-06T13:26:04.716Z,96587.59
2023-05-06T13:27:06.862Z,96588.09
2023-05-06T13:28:08.287Z,96581.72
2023-05-06T13:29:11.142Z,96579.72
2023-05-06T13:30:13.090Z,96592.56
2023-05-06T13:31:14.668Z,96591.81
2023-05-06T13:32:16.639Z,96589.81
2023-05-06T13:33:18.006Z,96583.78
2023-05-06T13:34:19.545Z,96585.44
2023-05-06T13:35:21.054Z,96587.28
2023-05-06T13:36:23.812Z,96580.97
2023-05-06T13:37:25.267Z,96587.59
2023-05-06T13:38:27.005Z,96585.66
2023-05-06T13:39:28.451Z,96582.09
2023-05-06T13:40:29.829Z,96590.13
2023-05-06T13:41:31.872Z,96586.78
2023-05-06T13:42:33.432Z,96586.31
2023-05-06T13:43:34.797Z,96583.44
2023-05-06T13:44:36.250Z,96593.66
2023-05-06T13:45:37.645Z,96578.88
2023-05-06T13:46:39.068Z,96583.72
2023-05-06T13:47:42.395Z,96585.88
2023-05-06T13:48:43.810Z,96588.84
2023-05-06T13:49:45.171Z,96582.00
2023-05-06T13:50:47.454Z,96583.69
2023-05-06T13:51:48.953Z,96581.41
2023-05-06T13:52:51.223Z,96585.84
2023-05-06T13:53:52.581Z,96572.34
2023-05-06T13:54:53.953Z,96576.69
2023-05-06T13:55:55.443Z,96572.47
2023-05-06T13:56:58.231Z,96559.75
2023-05-06T13:57:59.629Z,96569.34
2023-05-06T13:59:01.094Z,96568.47
2023-05-06T14:00:02.551Z,96563.16
2023-05-06T14:01:04.422Z,96574.84
2023-05-06T14:02:09.055Z,96558.53
2023-05-06T14:03:11.270Z,96561.03
2023-05-06T14:04:12.748Z,96571.91
2023-05-06T14:05:15.860Z,96570.22
2023-05-06T14:06:17.361Z,96567.56
2023-05-06T14:07:18.763Z,96572.78
2023-05-06T14:08:20.380Z,96566.63
2023-05-06T14:09:21.949Z,96554.31
2023-05-06T14:10:23.524Z,96566.50
2023-05-06T14:11:24.961Z,96571.13
2023-05-06T14:12:26.717Z,96559.41
2023-05-06T14:13:31.028Z,96570.97
2023-05-06T14:14:32.481Z,96553.66
2023-05-06T14:15:33.947Z,96568.16
2023-05-06T14:16:35.311Z,96572.38
2023-05-06T14:17:38.723Z,96575.34
2023-05-06T14:18:40.178Z,96563.88
2023-05-06T14:19:41.542Z,96565.13
2023-05-06T14:20:43.059Z,96566.81
2023-05-06T14:21:44.388Z,96560.28
2023-05-06T14:22:46.442Z,96560.38
2023-05-06T14:23:48.356Z,96558.69
2023-05-06T14:24:49.756Z,96564.34
2023-05-06T14:25:51.090Z,96556.50
2023-05-06T14:26:52.744Z,96553.41
2023-05-06T14:27:55.080Z,96554.28
2023-05-06T14:28:56.665Z,96553.84
2023-05-06T14:29:58.077Z,96553.28
2023-05-06T14:30:59.499Z,96553.75
2023-05-06T14:32:00.892Z,96553.03
2023-05-06T14:33:02.818Z,96553.72
2023-05-06T14:34:04.434Z,96548.44
2023-05-06T14:35:06.400Z,96546.94
2023-05-06T14:36:08.184Z,96548.34
2023-05-06T14:37:09.692Z,96546.81
2023-05-06T14:38:11.056Z,96544.31
2023-05-06T14:39:12.919Z,96547.63
2023-05-06T14:40:15.592Z,96546.59
2023-05-06T14:41:17.084Z,96541.34
2023-05-06T14:42:18.444Z,96532.56
2023-05-06T14:43:19.850Z,96530.88
2023-05-06T14:44:21.563Z,96540.44
2023-05-06T14:45:23.084Z,96542.16
2023-05-06T14:46:26.433Z,96536.09
2023-05-06T14:47:29.309Z,96533.53
2023-05-06T14:48:31.940Z,96534.63
2023-05-06T14:49:33.498Z,96541.53
2023-05-06T14:50:34.931Z,96535.88
2023-05-06T14:51:36.368Z,96533.25
2023-05-06T14:52:39.510Z,96535.38
2023-05-06T14:53:41.191Z,96537.53
2023-05-06T14:54:42.734Z,96533.28
2023-05-06T14:55:45.542Z,96527.53
2023-05-06T14:56:49.226Z,96528.06
2023-05-06T14:57:51.016Z,96533.75
2023-05-06T14:58:52.457Z,96534.56
2023-05-06T14:59:54.327Z,96524.25
2023-05-06T15:00:55.756Z,96526.56
2023-05-06T15:01:58.697Z,96521.38
2023-05-06T15:03:00.384Z,96473.91
2023-05-06T15:04:01.729Z,96524.00
2023-05-06T15:05:04.317Z,96532.19
2023-05-06T15:06:06.266Z,96528.22
2023-05-06T15:07:08.327Z,96525.88
2023-05-06T15:08:10.094Z,96518.50
2023-05-06T15:09:11.714Z,96526.31
2023-05-06T15:10:13.249Z,96532.13
2023-05-06T15:11:14.799Z,96527.34
2023-05-06T15:12:16.204Z,96531.25
2023-05-06T15:13:17.705Z,96522.53
2023-05-06T15:14:19.229Z,96528.38
2023-05-06T15:15:21.365Z,96530.47
2023-05-06T15:16:22.820Z,96521.69
2023-05-06T15:17:24.721Z,96526.50
2023-05-06T15:18:26.100Z,96526.88
2023-05-06T15:19:27.488Z,96527.72
2023-05-06T15:20:28.863Z,96522.72
2023-05-06T15:21:31.332Z,96522.22
2023-05-06T15:22:32.779Z,96527.38
2023-05-06T15:23:34.242Z,96521.03
2023-05-06T15:24:36.013Z,96525.53
2023-05-06T15:25:37.768Z,96523.03
2023-05-06T15:26:39.578Z,96522.56
2023-05-06T15:27:40.967Z,96528.22
2023-05-06T15:28:42.376Z,96527.88
2023-05-06T15:29:43.884Z,96530.03
2023-05-06T15:30:45.286Z,96522.53
2023-05-06T15:31:47.450Z,96528.78
2023-05-06T15:32:49.177Z,96527.66
2023-05-06T15:33:50.677Z,96529.97
2023-05-06T15:34:52.150Z,96528.63
2023-05-06T15:35:53.559Z,96523.59
2023-05-06T15:36:55.044Z,96528.94
2023-05-06T15:37:59.433Z,96532.41
2023-05-06T15:39:01.163Z,96532.91
2023-05-06T15:40:02.661Z,96537.59
2023-05-06T15:41:04.159Z,96534.09
2023-05-06T15:42:06.060Z,96533.56
2023-05-06T15:43:08.410Z,96534.19
2023-05-06T15:44:11.312Z,96530.69
2023-05-06T15:45:12.847Z,96530.75
2023-05-06T15:46:14.177Z,96525.78
2023-05-06T15:47:15.525Z,96529.75
2023-05-06T15:48:16.985Z,96530.25
2023-05-06T15:49:47.410Z,96533.81
2023-05-06T15:50:40.109Z,96530.78
2023-05-06T15:51:41.747Z,96526.03
2023-05-06T15:52:43.360Z,96518.50
2023-05-06T15:53:44.883Z,96527.75
2023-05-06T15:54:49.578Z,96517.00
2023-05-06T15:55:56.683Z,96526.78
2023-05-06T15:57:07.283Z,96523.22
2023-05-06T15:58:08.843Z,96525.09
2023-05-06T15:59:12.393Z,96522.84
2023-05-06T16:00:15.060Z,96519.88
2023-05-06T16:01:20.805Z,96527.81
2023-05-06T16:02:27.702Z,96521.28
2023-05-06T16:03:29.575Z,96516.63
2023-05-06T16:04:31.549Z,96524.31
2023-05-06T16:05:33.124Z,96517.97
2023-05-06T16:06:34.891Z,96517.97
2023-05-06T16:07:36.348Z,96521.50
2023-05-06T16:08:38.736Z,96520.53
2023-05-06T16:09:40.203Z,96514.88
2023-05-06T16:10:41.751Z,96519.75
2023-05-06T16:11:43.163Z,96520.63
2023-05-06T16:12:44.536Z,96521.75
2023-05-06T16:13:46.488Z,96517.72
2023-05-06T16:14:48.274Z,96517.78
2023-05-06T16:15:49.879Z,96511.47
2023-05-06T16:16:51.289Z,96519.63
2023-05-06T16:17:52.761Z,96510.84
2023-05-06T16:18:54.195Z,96508.19
2023-05-06T16:19:55.658Z,96515.09
2023-05-06T16:20:57.061Z,96511.19
2023-05-06T16:21:58.505Z,96516.09
2023-05-06T16:23:00.035Z,96521.16
2023-05-06T16:24:02.297Z,96513.81
2023-05-06T16:25:04.343Z,96513.41
2023-05-06T16:26:07.194Z,96524.72
2023-05-06T16:27:08.591Z,96517.50
2023-05-06T16:28:10.076Z,96521.81
2023-05-06T16:29:12.489Z,96506.97
2023-05-06T16:30:14.180Z,96502.41
2023-05-06T16:31:15.648Z,96517.34
2023-05-06T16:32:17.253Z,96497.63
2023-05-06T16:33:18.639Z,96512.31
2023-05-06T16:34:20.260Z,96506.91
2023-05-06T16:35:21.705Z,96508.88
2023-05-06T16:36:23.125Z,96509.81
2023-05-06T16:37:24.533Z,96500.38
2023-05-06T16:38:26.321Z,96506.13
2023-05-06T16:39:28.019Z,96510.78
2023-05-06T16:40:30.970Z,96510.66
2023-05-06T16:41:32.461Z,96514.59
2023-05-06T16:42:33.858Z,96508.66
2023-05-06T16:43:35.274Z,96510.38
2023-05-06T16:44:36.719Z,96509.47
2023-05-06T16:45:39.603Z,96510.38
2023-05-06T16:46:41.090Z,96507.03
2023-05-06T16:47:45.848Z,96517.94
2023-05-06T16:48:47.541Z,96509.81
2023-05-06T16:49:49.752Z,96505.97
2023-05-06T16:50:51.803Z,96501.75
2023-05-06T16:51:54.089Z,96502.19
2023-05-06T16:52:55.437Z,96505.03
2023-05-06T16:53:56.859Z,96498.50
2023-05-06T16:54:58.260Z,96508.16
2023-05-06T16:56:01.426Z,96501.31
2023-05-06T16:57:03.776Z,96497.44
2023-05-06T16:58:05.206Z,96498.69
2023-05-06T16:59:06.808Z,96494.78
2023-05-06T17:00:11.846Z,96500.50
2023-05-06T17:01:13.605Z,96494.75
2023-05-06T17:02:15.124Z,96492.78
2023-05-06T17:03:16.650Z,96500.91
2023-05-06T17:04:18.281Z,96486.81
